createdAt,value
2022-12-12T00:00:53.907Z,17.73
2022-12-12T00:03:24.434Z,17.17
2022-12-12T00:05:54.888Z,16.23
2022-12-12T00:08:22.788Z,17.73
2022-12-12T00:10:53.293Z,17.10
2022-12-12T00:13:21.030Z,16.10
2022-12-12T00:15:48.830Z,16.50
2022-12-12T00:18:16.594Z,16.47
2022-12-12T00:20:45.654Z,16.80
2022-12-12T00:23:13.928Z,17.03
2022-12-12T00:25:41.802Z,16.60
2022-12-12T00:28:09.985Z,16.93
2022-12-12T00:30:37.787Z,16.27
2022-12-12T00:33:05.519Z,16.83
2022-12-12T00:35:33.339Z,17.50
2022-12-12T00:38:02.619Z,15.40
2022-12-12T00:40:30.422Z,16.70
2022-12-12T00:42:58.292Z,17.83
2022-12-12T00:45:26.124Z,16.17
2022-12-12T00:47:53.938Z,16.43
2022-12-12T00:50:21.706Z,17.03
2022-12-12T00:52:49.546Z,16.23
2022-12-12T00:55:18.626Z,16.13
2022-12-12T00:57:46.462Z,16.50
2022-12-12T01:00:15.536Z,16.30
2022-12-12T01:02:43.684Z,16.97
2022-12-12T01:05:12.112Z,17.37
2022-12-12T01:07:40.740Z,16.67
2022-12-12T01:10:09.775Z,17.03
2022-12-12T01:12:39.050Z,16.83
2022-12-12T01:15:08.876Z,16.73
2022-12-12T01:17:38.207Z,18.17
2022-12-12T01:20:07.412Z,17.67
2022-12-12T01:22:37.194Z,17.23
2022-12-12T01:25:05.901Z,16.93
2022-12-12T01:27:33.901Z,17.50
2022-12-12T01:30:03.207Z,17.23
2022-12-12T01:32:30.988Z,16.93
2022-12-12T01:34:59.013Z,16.43
2022-12-12T01:37:27.152Z,16.87
2022-12-12T01:39:54.928Z,17.40
2022-12-12T01:42:22.716Z,18.27
2022-12-12T01:44:52.578Z,16.80
2022-12-12T01:47:23.463Z,16.63
2022-12-12T01:49:55.960Z,16.27
2022-12-12T01:52:27.952Z,17.00
2022-12-12T01:54:59.821Z,16.17
2022-12-12T01:57:31.182Z,16.40
2022-12-12T02:00:00.257Z,16.43
2022-12-12T02:02:30.512Z,17.37
2022-12-12T02:05:00.900Z,15.97
2022-12-12T02:07:28.784Z,17.30
2022-12-12T02:09:56.639Z,16.73
2022-12-12T02:12:24.403Z,16.53
2022-12-12T02:14:54.308Z,16.90
2022-12-12T02:17:49.145Z,16.57
2022-12-12T02:20:44.583Z,17.07
2022-12-12T02:23:45.188Z,16.93
2022-12-12T02:26:48.092Z,15.70
2022-12-12T02:30:03.026Z,15.87
2022-12-12T02:32:44.981Z,15.90
2022-12-12T02:35:19.410Z,16.70
2022-12-12T02:37:54.546Z,16.60
2022-12-12T02:40:27.152Z,16.30
2022-12-12T02:43:01.814Z,16.60
2022-12-12T02:45:36.804Z,15.57
2022-12-12T02:48:12.444Z,16.33
2022-12-12T02:50:43.164Z,15.83
2022-12-12T02:53:11.077Z,16.40
2022-12-12T02:55:38.870Z,16.43
2022-12-12T02:58:07.699Z,16.23
2022-12-12T03:00:43.551Z,16.10
2022-12-12T03:03:46.429Z,17.37
2022-12-12T03:06:44.962Z,15.27
2022-12-12T03:09:23.339Z,16.40
2022-12-12T03:12:02.721Z,16.17
2022-12-12T03:14:40.250Z,14.93
2022-12-12T03:17:14.961Z,16.23
2022-12-12T03:19:48.175Z,15.13
2022-12-12T03:22:27.048Z,15.83
2022-12-12T03:25:02.222Z,15.77
2022-12-12T03:27:36.757Z,15.03
2022-12-12T03:30:08.413Z,15.40
2022-12-12T03:32:41.008Z,15.20
2022-12-12T03:35:16.550Z,14.50
2022-12-12T03:37:50.236Z,14.23
2022-12-12T03:40:23.917Z,14.53
2022-12-12T03:42:58.511Z,13.73
2022-12-12T03:45:31.267Z,13.37
2022-12-12T03:48:04.465Z,15.23
2022-12-12T03:50:42.417Z,14.60
2022-12-12T03:53:13.118Z,14.33
2022-12-12T03:55:46.095Z,13.90
2022-12-12T03:58:21.164Z,13.37
2022-12-12T04:00:53.470Z,13.30
2022-12-12T04:03:28.200Z,13.70
2022-12-12T04:06:21.297Z,13.13
2022-12-12T04:09:03.375Z,13.70
2022-12-12T04:11:56.229Z,13.63
2022-12-12T04:14:41.822Z,13.03
2022-12-12T04:17:14.227Z,13.40
2022-12-12T04:20:09.532Z,12.10
2022-12-12T04:23:04.600Z,13.20
2022-12-12T04:26:02.490Z,11.80
2022-12-12T04:28:33.547Z,12.70
2022-12-12T04:31:06.195Z,12.67
2022-12-12T04:33:42.762Z,12.63
2022-12-12T04:36:14.495Z,12.60
2022-12-12T04:38:48.313Z,11.03
2022-12-12T04:41:18.867Z,11.17
2022-12-12T04:43:50.711Z,11.17
2022-12-12T04:46:22.735Z,11.07
2022-12-12T04:48:53.961Z,10.33
2022-12-12T04:51:28.224Z,11.50
2022-12-12T04:54:03.187Z,10.43
2022-12-12T04:56:35.324Z,10.37
2022-12-12T04:59:04.972Z,10.73
2022-12-12T05:01:39.408Z,10.97
2022-12-12T05:04:13.754Z,10.53
2022-12-12T05:06:46.146Z,11.03
2022-12-12T05:09:17.562Z,10.33
2022-12-12T05:11:45.574Z,10.57
2022-12-12T05:14:16.525Z,9.43
2022-12-12T05:16:47.951Z,9.93
2022-12-12T05:19:16.226Z,9.67
2022-12-12T05:21:44.075Z,10.10
2022-12-12T05:24:11.945Z,9.27
2022-12-12T05:26:41.125Z,8.70
2022-12-12T05:29:08.905Z,7.80
2022-12-12T05:31:36.926Z,8.80
2022-12-12T05:34:05.585Z,9.07
2022-12-12T05:36:33.746Z,9.93
2022-12-12T05:39:01.452Z,8.23
2022-12-12T05:41:29.233Z,7.97
2022-12-12T05:43:58.364Z,8.23
2022-12-12T05:46:26.183Z,8.00
2022-12-12T05:48:54.079Z,8.23
2022-12-12T05:51:22.530Z,7.97
2022-12-12T05:53:51.922Z,8.20
2022-12-12T05:56:19.732Z,8.47
2022-12-12T05:58:47.609Z,8.00
2022-12-12T06:01:16.983Z,9.33
2022-12-12T06:03:44.736Z,9.07
2022-12-12T06:06:12.435Z,9.07
2022-12-12T06:08:40.307Z,9.10
2022-12-12T06:11:08.830Z,8.00
2022-12-12T06:13:38.309Z,7.97
2022-12-12T06:16:10.143Z,7.87
2022-12-12T06:18:39.586Z,7.83
2022-12-12T06:21:09.226Z,8.33
2022-12-12T06:23:38.146Z,8.43
2022-12-12T06:26:06.851Z,9.27
2022-12-12T06:28:34.909Z,8.23
2022-12-12T06:31:06.892Z,9.20
2022-12-12T06:33:41.362Z,8.07
2022-12-12T06:36:11.775Z,7.63
2022-12-12T06:38:40.158Z,8.20
2022-12-12T06:41:08.880Z,8.57
2022-12-12T06:43:36.768Z,8.37
2022-12-12T06:46:05.894Z,8.17
2022-12-12T06:48:34.773Z,7.53
2022-12-12T06:51:09.226Z,8.20
2022-12-12T06:53:37.476Z,8.20
2022-12-12T06:56:07.747Z,8.70
2022-12-12T06:58:35.623Z,7.97
2022-12-12T07:01:03.657Z,8.50
2022-12-12T07:03:31.346Z,8.53
2022-12-12T07:05:59.150Z,8.23
2022-12-12T07:08:28.764Z,8.53
2022-12-12T07:10:57.361Z,8.50
2022-12-12T07:13:25.087Z,8.53
2022-12-12T07:15:57.220Z,9.30
2022-12-12T07:18:25.130Z,8.37
2022-12-12T07:20:52.952Z,8.73
2022-12-12T07:23:21.017Z,8.10
2022-12-12T07:25:50.188Z,8.10
2022-12-12T07:28:17.954Z,9.17
2022-12-12T07:30:47.577Z,9.37
2022-12-12T07:33:17.467Z,8.07
2022-12-12T07:35:45.746Z,9.27
2022-12-12T07:38:13.642Z,8.60
2022-12-12T07:40:41.393Z,8.60
2022-12-12T07:43:10.527Z,8.57
2022-12-12T07:45:38.289Z,7.43
2022-12-12T07:48:06.161Z,8.90
2022-12-12T07:50:33.854Z,8.03
2022-12-12T07:53:01.564Z,8.23
2022-12-12T07:55:29.589Z,8.33
2022-12-12T07:57:57.516Z,8.70
2022-12-12T08:00:26.959Z,7.93
2022-12-12T08:02:54.904Z,8.90
2022-12-12T08:05:22.671Z,8.63
2022-12-12T08:07:50.439Z,8.47
2022-12-12T08:10:18.242Z,8.93
2022-12-12T08:12:45.991Z,8.57
2022-12-12T08:15:16.508Z,7.97
2022-12-12T08:17:45.598Z,8.77
2022-12-12T08:20:13.495Z,9.27
2022-12-12T08:22:41.217Z,7.97
2022-12-12T08:25:09.364Z,8.33
2022-12-12T08:27:37.288Z,8.03
2022-12-12T08:30:06.133Z,7.83
2022-12-12T08:32:33.993Z,7.80
2022-12-12T08:35:03.678Z,7.67
2022-12-12T08:37:31.416Z,8.77
2022-12-12T08:39:59.170Z,8.27
2022-12-12T08:42:27.496Z,9.17
2022-12-12T08:44:55.361Z,8.73
2022-12-12T08:47:23.095Z,9.10
2022-12-12T08:49:50.834Z,9.03
2022-12-12T08:52:20.006Z,8.60
2022-12-12T08:54:47.777Z,8.13
2022-12-12T08:57:15.498Z,8.77
2022-12-12T08:59:43.193Z,8.90
2022-12-12T09:02:13.407Z,8.63
2022-12-12T09:04:41.380Z,9.80
2022-12-12T09:07:09.112Z,10.10
2022-12-12T09:09:38.153Z,10.97
2022-12-12T09:12:06.373Z,9.90
2022-12-12T09:14:34.287Z,10.37
2022-12-12T09:17:01.978Z,11.40
2022-12-12T09:19:29.673Z,10.33
2022-12-12T09:21:57.362Z,10.27
2022-12-12T09:24:25.569Z,10.63
2022-12-12T09:26:54.779Z,10.23
2022-12-12T09:29:22.685Z,10.13
2022-12-12T09:31:50.428Z,10.03
2022-12-12T09:34:18.229Z,10.57
2022-12-12T09:36:46.034Z,10.70
2022-12-12T09:39:13.737Z,10.77
2022-12-12T09:41:41.535Z,10.67
2022-12-12T09:44:18.649Z,11.63
2022-12-12T09:46:50.128Z,10.33
2022-12-12T09:49:27.066Z,10.80
2022-12-12T09:51:57.046Z,11.83
2022-12-12T09:54:27.617Z,11.13
2022-12-12T09:57:05.838Z,11.67
2022-12-12T09:59:42.524Z,10.83
2022-12-12T10:02:33.984Z,11.87
2022-12-12T10:05:06.328Z,11.33
2022-12-12T10:07:41.283Z,11.27
2022-12-12T10:10:20.233Z,11.40
2022-12-12T10:12:48.996Z,11.50
2022-12-12T10:15:29.077Z,11.00
2022-12-12T10:17:59.603Z,12.17
2022-12-12T10:20:30.431Z,11.33
2022-12-12T10:23:05.882Z,12.10
2022-12-12T10:25:42.162Z,11.37
2022-12-12T10:28:12.663Z,10.77
2022-12-12T10:30:57.693Z,11.10
2022-12-12T10:33:35.914Z,12.30
2022-12-12T10:36:17.355Z,11.40
2022-12-12T10:39:04.532Z,11.30
2022-12-12T10:41:45.306Z,10.53
2022-12-12T10:44:24.820Z,11.03
2022-12-12T10:47:01.383Z,11.77
2022-12-12T10:49:30.338Z,10.53
2022-12-12T10:52:00.915Z,10.83
2022-12-12T10:54:32.837Z,11.80
2022-12-12T10:57:16.542Z,10.77
2022-12-12T10:59:49.368Z,10.97
2022-12-12T11:02:28.532Z,9.70
2022-12-12T11:05:03.649Z,10.30
2022-12-12T11:07:32.045Z,9.03
2022-12-12T11:10:02.301Z,9.10
2022-12-12T11:12:35.228Z,9.33
2022-12-12T11:15:07.588Z,10.40
2022-12-12T11:17:37.141Z,10.60
2022-12-12T11:20:09.871Z,11.43
2022-12-12T11:22:40.447Z,10.63
2022-12-12T11:25:08.587Z,9.93
2022-12-12T11:27:40.362Z,11.00
2022-12-12T11:30:22.545Z,9.80
2022-12-12T11:32:55.334Z,9.83
2022-12-12T11:35:26.810Z,9.43
2022-12-12T11:37:58.685Z,9.67
2022-12-12T11:40:31.046Z,9.53
2022-12-12T11:43:23.666Z,9.70
2022-12-12T11:46:00.554Z,9.17
2022-12-12T11:48:41.000Z,10.40
2022-12-12T11:51:09.515Z,9.13
2022-12-12T11:53:40.056Z,9.17
2022-12-12T11:56:21.861Z,9.60
2022-12-12T11:58:56.709Z,9.77
2022-12-12T12:01:34.548Z,11.13
2022-12-12T12:04:16.889Z,10.63
2022-12-12T12:06:59.758Z,10.33
2022-12-12T12:09:36.887Z,10.67
2022-12-12T12:12:11.256Z,10.77
2022-12-12T12:14:56.648Z,10.37
2022-12-12T12:17:33.237Z,10.43
2022-12-12T12:20:13.145Z,11.33
2022-12-12T12:22:49.383Z,11.50
2022-12-12T12:25:36.479Z,10.33
2022-12-12T12:28:37.652Z,11.43
2022-12-12T12:31:14.545Z,10.93
2022-12-12T12:33:55.030Z,12.13
2022-12-12T12:36:26.344Z,11.20
2022-12-12T12:39:01.722Z,11.17
2022-12-12T12:41:45.543Z,10.73
2022-12-12T12:44:28.354Z,10.67
2022-12-12T12:47:03.668Z,11.17
2022-12-12T12:49:36.082Z,11.70
2022-12-12T12:52:11.521Z,11.53
2022-12-12T12:54:41.311Z,11.17
2022-12-12T12:57:15.746Z,10.47
2022-12-12T12:59:48.183Z,11.27
2022-12-12T13:02:27.196Z,11.03
2022-12-12T13:05:06.749Z,9.90
2022-12-12T13:07:43.731Z,10.30
2022-12-12T13:10:20.668Z,10.53
2022-12-12T13:12:55.547Z,10.63
2022-12-12T13:15:28.543Z,9.87
2022-12-12T13:18:01.356Z,10.07
2022-12-12T13:20:31.930Z,10.17
2022-12-12T13:23:13.718Z,9.93
2022-12-12T13:25:50.740Z,11.27
2022-12-12T13:28:22.549Z,10.77
2022-12-12T13:31:13.503Z,10.60
2022-12-12T13:33:44.984Z,10.23
2022-12-12T13:36:18.184Z,10.47
2022-12-12T13:38:51.809Z,10.07
2022-12-12T13:41:20.391Z,10.07
2022-12-12T13:43:50.269Z,10.00
2022-12-12T13:46:40.837Z,10.23
2022-12-12T13:49:29.915Z,11.17
2022-12-12T13:52:23.798Z,10.03
2022-12-12T13:55:12.714Z,10.03
2022-12-12T13:58:08.190Z,9.07
2022-12-12T14:00:40.072Z,10.53
2022-12-12T14:03:31.877Z,10.03
2022-12-12T14:06:12.014Z,9.97
2022-12-12T14:08:49.472Z,10.07
2022-12-12T14:11:31.003Z,9.20
2022-12-12T14:14:10.467Z,10.40
2022-12-12T14:16:38.495Z,9.73
2022-12-12T14:19:09.765Z,10.13
2022-12-12T14:21:41.388Z,10.27
2022-12-12T14:24:48.395Z,9.63
2022-12-12T14:27:17.762Z,10.27
2022-12-12T14:29:46.955Z,9.93
2022-12-12T14:32:37.009Z,10.00
2022-12-12T14:35:24.978Z,10.00
2022-12-12T14:38:05.051Z,10.87
2022-12-12T14:40:34.821Z,9.50
2022-12-12T14:43:20.213Z,10.80
2022-12-12T14:45:58.182Z,10.03
2022-12-12T14:48:30.097Z,9.97
2022-12-12T14:51:02.632Z,10.07
2022-12-12T14:53:34.403Z,10.60
2022-12-12T14:56:04.895Z,10.20
2022-12-12T14:58:37.960Z,11.50
2022-12-12T15:01:07.252Z,10.27
2022-12-12T15:03:40.098Z,10.67
2022-12-12T15:06:22.372Z,12.47
2022-12-12T15:08:50.711Z,10.83
2022-12-12T15:11:21.429Z,11.50
2022-12-12T15:13:55.255Z,10.83
2022-12-12T15:16:29.744Z,9.80
2022-12-12T15:18:59.892Z,10.90
2022-12-12T15:21:27.847Z,11.37
2022-12-12T15:23:55.615Z,10.67
2022-12-12T15:26:27.831Z,12.43
2022-12-12T15:28:57.327Z,11.20
2022-12-12T15:31:26.584Z,12.43
2022-12-12T15:33:54.416Z,12.23
2022-12-12T15:36:27.650Z,13.80
2022-12-12T15:39:11.721Z,13.80
2022-12-12T15:41:39.461Z,13.80
2022-12-12T15:44:08.781Z,14.77
2022-12-12T15:46:37.196Z,15.33
2022-12-12T15:49:05.157Z,13.97
2022-12-12T15:51:33.132Z,13.90
2022-12-12T15:54:02.147Z,13.83
2022-12-12T15:56:30.543Z,14.37
2022-12-12T15:59:15.839Z,14.70
2022-12-12T16:01:45.271Z,15.47
2022-12-12T16:04:25.983Z,16.37
2022-12-12T16:06:53.721Z,14.97
2022-12-12T16:09:22.918Z,15.53
2022-12-12T16:11:52.132Z,15.37
2022-12-12T16:14:38.634Z,16.10
2022-12-12T16:17:13.360Z,14.53
2022-12-12T16:19:44.519Z,15.83
2022-12-12T16:22:32.037Z,14.27
2022-12-12T16:25:21.173Z,15.07
2022-12-12T16:27:53.239Z,15.90
2022-12-12T16:30:21.536Z,15.93
2022-12-12T16:32:53.651Z,15.67
2022-12-12T16:35:23.747Z,16.20
2022-12-12T16:37:53.060Z,17.17
2022-12-12T16:40:22.484Z,15.63
2022-12-12T16:43:02.597Z,16.87
2022-12-12T16:45:32.836Z,16.97
2022-12-12T16:48:02.160Z,16.40
2022-12-12T16:50:29.891Z,18.07
2022-12-12T16:52:57.921Z,17.07
2022-12-12T16:55:26.227Z,16.53
2022-12-12T16:57:54.035Z,17.13
2022-12-12T17:00:21.809Z,17.33
2022-12-12T17:02:49.618Z,16.27
2022-12-12T17:05:23.518Z,17.27
2022-12-12T17:07:52.096Z,17.57
2022-12-12T17:10:20.602Z,17.17
2022-12-12T17:12:48.885Z,17.77
2022-12-12T17:15:21.587Z,17.80
2022-12-12T17:17:49.334Z,16.73
2022-12-12T17:20:17.541Z,17.97
2022-12-12T17:22:47.063Z,18.33
2022-12-12T17:25:15.218Z,18.27
2022-12-12T17:27:43.257Z,18.00
2022-12-12T17:30:13.808Z,19.10
2022-12-12T17:32:42.079Z,18.10
2022-12-12T17:35:10.830Z,18.30
2022-12-12T17:37:38.892Z,19.00
2022-12-12T17:40:11.000Z,18.03
2022-12-12T17:42:39.605Z,18.80
2022-12-12T17:45:10.181Z,18.97
2022-12-12T17:47:38.121Z,19.47
2022-12-12T17:50:06.648Z,17.03
2022-12-12T17:52:34.478Z,17.77
2022-12-12T17:55:53.156Z,18.50
2022-12-12T17:57:51.353Z,20.33
2022-12-12T18:00:19.570Z,18.77
2022-12-12T18:02:47.337Z,19.13
2022-12-12T18:05:19.433Z,18.93
2022-12-12T18:07:47.497Z,18.40
2022-12-12T18:10:15.745Z,18.57
2022-12-12T18:12:48.268Z,18.77
2022-12-12T18:15:20.617Z,18.07
2022-12-12T18:17:48.362Z,17.70
2022-12-12T18:20:16.424Z,16.93
2022-12-12T18:22:44.506Z,16.53
2022-12-12T18:25:12.351Z,16.20
2022-12-12T18:27:40.373Z,17.63
2022-12-12T18:30:09.123Z,14.97
2022-12-12T18:32:38.197Z,16.00
2022-12-12T18:35:06.730Z,17.37
2022-12-12T18:37:34.544Z,15.83
2022-12-12T18:40:02.270Z,16.77
2022-12-12T18:42:29.981Z,16.63
2022-12-12T18:44:58.369Z,15.73
2022-12-12T18:47:26.064Z,16.37
2022-12-12T18:49:55.180Z,15.67
2022-12-12T18:52:22.934Z,17.10
2022-12-12T18:54:51.973Z,16.43
2022-12-12T18:57:19.811Z,15.03
2022-12-12T18:59:47.499Z,16.77
2022-12-12T19:02:15.583Z,16.67
2022-12-12T19:04:44.685Z,15.23
2022-12-12T19:07:13.808Z,15.60
2022-12-12T19:09:41.867Z,15.50
2022-12-12T19:12:09.558Z,14.93
2022-12-12T19:14:59.655Z,14.70
2022-12-12T19:17:26.759Z,15.17
2022-12-12T19:19:55.255Z,15.73
2022-12-12T19:22:45.604Z,15.63
2022-12-12T19:25:12.727Z,14.53
2022-12-12T19:27:40.460Z,15.40
2022-12-12T19:30:11.652Z,15.20
2022-12-12T19:32:39.655Z,15.60
2022-12-12T19:35:08.211Z,15.23
2022-12-12T19:37:38.209Z,14.57
2022-12-12T19:40:06.882Z,15.40
2022-12-12T19:42:34.607Z,15.57
2022-12-12T19:45:04.336Z,16.33
2022-12-12T19:47:33.310Z,15.53
2022-12-12T19:50:01.086Z,15.90
2022-12-12T19:52:29.160Z,16.27
2022-12-12T19:54:58.222Z,15.17
2022-12-12T19:57:26.397Z,15.00
2022-12-12T19:59:54.326Z,16.17
2022-12-12T20:02:22.298Z,16.53
2022-12-12T20:04:50.082Z,15.43
2022-12-12T20:07:18.196Z,15.40
2022-12-12T20:09:45.950Z,15.77
2022-12-12T20:12:15.043Z,15.33
2022-12-12T20:14:42.754Z,16.40
2022-12-12T20:17:10.841Z,16.80
2022-12-12T20:19:38.917Z,17.37
2022-12-12T20:22:09.281Z,16.53
2022-12-12T20:24:37.425Z,17.27
2022-12-12T20:27:05.606Z,16.57
2022-12-12T20:29:34.747Z,15.57
2022-12-12T20:32:02.980Z,15.80
2022-12-12T20:34:31.339Z,16.00
2022-12-12T20:36:59.377Z,15.97
2022-12-12T20:39:27.164Z,15.73
2022-12-12T20:41:56.623Z,16.37
2022-12-12T20:44:25.406Z,16.63
2022-12-12T20:46:54.685Z,16.37
2022-12-12T20:49:24.540Z,16.77
2022-12-12T20:51:55.979Z,15.70
2022-12-12T20:54:25.166Z,16.33
2022-12-12T20:56:53.969Z,16.70
2022-12-12T20:59:22.055Z,15.97
2022-12-12T21:01:49.935Z,16.57
2022-12-12T21:04:19.185Z,17.27
2022-12-12T21:06:49.738Z,16.40
2022-12-12T21:09:23.709Z,17.27
2022-12-12T21:11:53.758Z,17.50
2022-12-12T21:14:21.552Z,16.27
2022-12-12T21:16:49.284Z,17.00
2022-12-12T21:19:18.883Z,19.20
2022-12-12T21:21:48.087Z,18.53
2022-12-12T21:24:17.972Z,16.37
2022-12-12T21:26:47.176Z,16.80
2022-12-12T21:29:15.575Z,17.90
2022-12-12T21:31:50.231Z,17.93
2022-12-12T21:34:20.291Z,18.73
2022-12-12T21:36:51.197Z,17.43
2022-12-12T21:39:18.979Z,18.00
2022-12-12T21:41:46.747Z,18.13
2022-12-12T21:44:14.484Z,18.40
2022-12-12T21:46:44.014Z,17.07
2022-12-12T21:49:26.287Z,17.43
2022-12-12T21:51:58.745Z,17.87
2022-12-12T21:54:28.897Z,16.17
2022-12-12T21:56:56.918Z,16.67
2022-12-12T21:59:25.616Z,16.93
2022-12-12T22:01:55.477Z,17.33
2022-12-12T22:04:23.252Z,17.87
2022-12-12T22:06:51.152Z,16.80
2022-12-12T22:09:20.305Z,15.80
2022-12-12T22:11:51.997Z,17.23
2022-12-12T22:14:22.192Z,17.67
2022-12-12T22:16:50.409Z,16.43
2022-12-12T22:19:18.714Z,17.37
2022-12-12T22:21:48.332Z,17.47
2022-12-12T22:24:17.204Z,17.67
2022-12-12T22:26:47.991Z,17.13
2022-12-12T22:29:19.316Z,16.57
2022-12-12T22:31:49.805Z,19.17
2022-12-12T22:34:19.815Z,17.93
2022-12-12T22:36:48.692Z,18.57
2022-12-12T22:39:19.381Z,16.70
2022-12-12T22:41:50.081Z,16.10
2022-12-12T22:44:20.224Z,17.10
2022-12-12T22:46:49.994Z,15.33
2022-12-12T22:49:20.494Z,16.23
2022-12-12T22:51:51.537Z,17.43
2022-12-12T22:54:19.949Z,17.33
2022-12-12T22:56:49.043Z,16.93
2022-12-12T22:59:16.846Z,17.43
2022-12-12T23:01:44.877Z,16.57
2022-12-12T23:04:13.849Z,18.33
2022-12-12T23:06:42.848Z,18.30
2022-12-12T23:09:14.992Z,18.80
2022-12-12T23:11:43.271Z,18.23
2022-12-12T23:14:15.687Z,18.23
2022-12-12T23:16:44.417Z,17.97
2022-12-12T23:19:14.437Z,17.33
2022-12-12T23:21:42.442Z,17.90
2022-12-12T23:24:10.808Z,17.63
2022-12-12T23:26:38.829Z,16.03
2022-12-12T23:29:09.223Z,16.60
2022-12-12T23:31:39.730Z,16.73
2022-12-12T23:34:09.533Z,16.77
2022-12-12T23:36:38.167Z,15.97
2022-12-12T23:39:08.254Z,16.83
2022-12-12T23:41:36.697Z,17.67
2022-12-12T23:44:05.195Z,17.03
2022-12-12T23:46:32.984Z,15.13
2022-12-12T23:49:04.352Z,16.67
2022-12-12T23:51:34.529Z,16.87
2022-12-12T23:54:05.123Z,16.67
2022-12-12T23:59:22.724Z,15.30
